Time;durP1;ratioP1;P1;durP2;ratioP2;P2;SDS_P1;SDS_P2;PMS_P1;PMS_P2;Temp;Humidity;BMP_temperature;BMP_pressure;BME280_temperature;BME280_humidity;BME280_pressure;Samples;Min_cycle;Max_cycle;Signal;HPM_P1;HPM_P2
2021/06/01 00:01:23;;;;;;;6.00;2.95;;;;;;;21.43;62.76;100254.51;1698211;82;21029;-63
2021/06/01 00:03:49;;;;;;;7.10;2.80;;;;;;;21.42;62.71;100254.30;1694301;82;21041;-64
2021/06/01 00:06:16;;;;;;;5.12;2.70;;;;;;;21.40;62.68;100251.04;1696677;82;21097;-64
2021/06/01 00:08:42;;;;;;;4.83;2.65;;;;;;;21.38;62.63;100247.81;1697002;83;21637;-63
2021/06/01 00:11:09;;;;;;;4.53;2.87;;;;;;;21.35;62.61;100246.51;1698730;83;21472;-63
2021/06/01 00:13:36;;;;;;;4.28;2.67;;;;;;;21.35;62.61;100252.61;1698945;82;21666;-63
2021/06/01 00:16:03;;;;;;;4.00;2.47;;;;;;;21.33;62.61;100246.63;1699854;82;21089;-63
2021/06/01 00:18:29;;;;;;;2.67;2.10;;;;;;;21.35;62.56;100251.23;1697213;82;21160;-63
2021/06/01 00:20:55;;;;;;;4.65;2.47;;;;;;;21.36;62.63;100248.14;1700045;82;21634;-63
2021/06/01 00:23:22;;;;;;;4.55;2.62;;;;;;;21.38;62.72;100244.48;1699576;82;22673;-64
2021/06/01 00:25:48;;;;;;;3.98;2.17;;;;;;;21.38;62.81;100251.39;1698632;82;21567;-64
2021/06/01 00:28:15;;;;;;;3.95;2.17;;;;;;;21.39;62.83;100245.26;1695862;81;21205;-63
2021/06/01 00:30:42;;;;;;;3.83;2.40;;;;;;;21.39;62.86;100246.64;1685528;84;21115;-62
2021/06/01 00:33:10;;;;;;;4.50;2.45;;;;;;;21.39;62.82;100249.41;1696705;83;21188;-63
2021/06/01 00:35:38;;;;;;;4.80;2.12;;;;;;;21.38;62.79;100247.24;1697587;83;21208;-62
2021/06/01 00:38:05;;;;;;;3.20;2.10;;;;;;;21.37;62.74;100245.61;1700661;83;21069;-62
2021/06/01 00:40:32;;;;;;;4.60;2.50;;;;;;;21.38;62.73;100245.05;1699022;84;21097;-63
2021/06/01 00:42:58;;;;;;;2.83;2.02;;;;;;;21.36;62.67;100244.56;1700435;83;21598;-63
2021/06/01 00:45:26;;;;;;;3.55;2.17;;;;;;;21.35;62.67;100242.93;1701445;83;20934;-63
2021/06/01 00:47:52;;;;;;;3.77;2.40;;;;;;;21.33;62.66;100241.09;1694095;84;23247;-63
2021/06/01 00:50:24;;;;;;;4.42;2.12;;;;;;;21.32;62.66;100242.23;1700306;83;21105;-62
2021/06/01 00:52:51;;;;;;;4.40;2.30;;;;;;;21.30;62.65;100240.38;1696536;82;21050;-62
2021/06/01 00:55:17;;;;;;;3.37;2.10;;;;;;;21.29;62.64;100243.72;1700791;84;21452;-62
2021/06/01 00:57:44;;;;;;;2.50;1.85;;;;;;;21.27;62.63;100246.00;1697062;84;21093;-63
2021/06/01 01:00:26;;;;;;;3.15;2.00;;;;;;;21.28;62.65;100242.09;1699627;84;21040;-62
2021/06/01 01:02:40;;;;;;;;;;;;;;;21.31;62.67;100242.80;1707929;83;21049;-63
2021/06/01 01:05:11;;;;;;;2.22;1.40;;;;;;;21.32;62.77;100243.61;1694312;84;20476;-63
2021/06/01 01:07:44;;;;;;;4.37;1.77;;;;;;;21.31;62.86;100231.73;1695691;83;21069;-62
2021/06/01 01:10:09;;;;;;;3.55;2.00;;;;;;;21.32;62.95;100229.20;1617055;85;21148;-62
2021/06/01 01:12:54;;;;;;;3.95;1.80;;;;;;;21.32;63.00;100224.23;1701297;83;21138;-62
2021/06/01 01:15:22;;;;;;;3.98;2.00;;;;;;;21.33;62.99;100223.10;1676006;84;20996;-63
2021/06/01 01:17:51;;;;;;;3.45;1.90;;;;;;;21.32;62.93;100231.97;1676770;84;21589;-64
2021/06/01 01:20:40;;;;;;;3.15;1.80;;;;;;;21.32;62.89;100221.47;1677479;84;21849;-62
2021/06/01 01:23:20;;;;;;;2.72;1.90;;;;;;;21.30;62.88;100219.03;1676807;84;21067;-60
2021/06/01 01:26:14;;;;;;;3.05;1.77;;;;;;;21.30;62.80;100219.63;1680326;84;21663;-61
2021/06/01 01:29:03;;;;;;;4.10;1.72;;;;;;;21.28;62.77;100213.04;1688301;82;21015;-61
2021/06/01 01:31:49;;;;;;;2.85;1.72;;;;;;;21.26;62.77;100213.94;1734122;81;21096;-61
2021/06/01 01:34:15;;;;;;;3.40;1.75;;;;;;;21.23;62.75;100211.84;1736333;81;21564;-61
2021/06/01 01:36:41;;;;;;;2.62;1.67;;;;;;;21.21;62.73;100212.77;1741114;80;20985;-60
2021/06/01 01:39:08;;;;;;;3.15;1.90;;;;;;;21.20;62.75;100212.53;1738832;81;21107;-60
2021/06/01 01:41:36;;;;;;;2.98;1.70;;;;;;;21.18;62.76;100213.42;1710328;81;21084;-61
2021/06/01 01:44:06;;;;;;;2.83;1.60;;;;;;;21.18;62.78;100213.99;1730334;81;21100;-61
2021/06/01 01:47:05;;;;;;;2.80;1.92;;;;;;;21.19;62.76;100204.55;1732365;81;21552;-61
2021/06/01 01:49:04;;;;;;;2.77;1.50;;;;;;;21.21;62.81;100207.24;1729010;81;21062;-61
2021/06/01 01:51:40;;;;;;;2.45;1.62;;;;;;;21.21;62.91;100210.01;1732222;81;21148;-60
2021/06/01 01:54:14;;;;;;;2.95;1.52;;;;;;;21.23;63.02;100206.31;1731408;81;21029;-62
2021/06/01 01:56:44;;;;;;;3.10;1.35;;;;;;;21.25;63.11;100212.91;1729588;81;21023;-63
2021/06/01 01:59:22;;;;;;;1.90;1.27;;;;;;;21.24;63.13;100210.70;1740117;81;20997;-64
2021/06/01 02:01:50;;;;;;;2.42;1.45;;;;;;;21.25;63.13;100207.38;1738789;81;21061;-64
2021/06/01 02:04:24;;;;;;;3.15;1.60;;;;;;;21.25;63.07;100204.61;1728679;81;21222;-64
2021/06/01 02:06:51;;;;;;;2.37;1.50;;;;;;;21.25;63.04;100204.61;1730102;81;21120;-64
2021/06/01 02:09:17;;;;;;;3.10;1.47;;;;;;;21.25;63.01;100207.38;1736161;81;21098;-64
2021/06/01 02:11:44;;;;;;;3.17;1.55;;;;;;;21.23;62.99;100203.55;1734880;81;21084;-64
2021/06/01 02:14:10;;;;;;;2.10;1.35;;;;;;;21.22;62.93;100206.07;1730943;81;21057;-63
2021/06/01 02:16:40;;;;;;;2.02;1.35;;;;;;;21.22;62.92;100208.02;1728865;81;21069;-64
2021/06/01 02:19:12;;;;;;;3.03;1.70;;;;;;;21.20;62.89;100211.15;1727968;81;21148;-63
2021/06/01 02:24:38;;;;;;;2.47;1.45;;;;;;;21.17;62.86;100209.63;1739558;81;21117;-62
2021/06/01 02:27:31;;;;;;;2.17;1.40;;;;;;;21.15;62.87;100209.95;1733731;81;21105;-62
2021/06/01 02:30:12;;;;;;;2.75;1.60;;;;;;;21.13;62.87;100208.08;1729057;81;21133;-64
2021/06/01 02:32:50;;;;;;;2.15;1.47;;;;;;;21.15;62.86;100209.95;1734427;81;21089;-62
2021/06/01 02:35:36;;;;;;;1.85;1.40;;;;;;;21.16;62.94;100209.39;1740602;81;21109;-63
2021/06/01 02:38:05;;;;;;;2.47;1.50;;;;;;;21.17;63.04;100205.48;1737290;81;21014;-65
2021/06/01 02:40:32;;;;;;;4.08;1.47;;;;;;;21.17;63.13;100205.48;1728243;81;21055;-64
2021/06/01 02:43:00;;;;;;;2.55;1.12;;;;;;;21.17;63.20;100201.33;1723928;82;21962;-64
2021/06/01 02:45:26;;;;;;;3.40;1.32;;;;;;;21.17;63.20;100200.77;1728557;82;21076;-64
2021/06/01 02:47:53;;;;;;;1.95;1.37;;;;;;;21.17;63.18;100188.88;1733011;81;21086;-63
2021/06/01 02:50:19;;;;;;;1.77;1.25;;;;;;;21.17;63.15;100193.84;1737056;81;21669;-63
2021/06/01 02:52:46;;;;;;;1.45;1.15;;;;;;;21.16;63.13;100186.69;1730081;82;21108;-64
2021/06/01 02:55:16;;;;;;;2.17;1.37;;;;;;;21.17;63.11;100186.12;1739725;81;21550;-63
2021/06/01 02:57:42;;;;;;;2.03;1.00;;;;;;;21.16;63.09;100185.87;1719599;82;21128;-63
2021/06/01 03:00:12;;;;;;;2.72;1.20;;;;;;;21.14;63.06;100186.20;1732942;81;21060;-64
2021/06/01 03:02:38;;;;;;;3.30;1.37;;;;;;;21.14;63.04;100184.00;1737542;81;21066;-63
2021/06/01 03:05:06;;;;;;;2.12;1.40;;;;;;;21.12;63.03;100190.42;1729334;81;21595;-64
2021/06/01 03:07:32;;;;;;;2.00;1.30;;;;;;;21.11;63.01;100194.33;1738958;81;21285;-64
2021/06/01 03:09:59;;;;;;;2.40;1.70;;;;;;;21.10;63.03;100195.47;1731010;81;21050;-64
2021/06/01 03:14:58;;;;;;;1.77;1.17;;;;;;;21.11;63.03;100199.86;1722689;82;21080;-62
2021/06/01 03:17:24;;;;;;;1.50;1.20;;;;;;;21.13;63.05;100199.00;1728535;81;21119;-64
2021/06/01 03:19:50;;;;;;;1.67;1.17;;;;;;;21.14;63.17;100196.45;1725846;81;21637;-63
2021/06/01 03:22:16;;;;;;;2.80;1.20;;;;;;;21.16;63.26;100196.37;1732321;81;21562;-64
2021/06/01 03:24:42;;;;;;;2.25;1.20;;;;;;;21.17;63.34;100194.41;1727214;81;21133;-64
2021/06/01 03:27:09;;;;;;;2.12;1.25;;;;;;;21.19;63.37;100205.94;1735396;81;21552;-64
2021/06/01 03:29:35;;;;;;;1.98;1.30;;;;;;;21.19;63.38;100197.64;1746932;81;21101;-64
2021/06/01 03:32:01;;;;;;;2.22;1.50;;;;;;;21.18;63.31;100198.20;1734247;81;21066;-64
2021/06/01 03:34:27;;;;;;;2.92;1.42;;;;;;;21.20;63.26;100203.41;1729081;81;21112;-64
2021/06/01 03:36:53;;;;;;;2.98;1.10;;;;;;;21.19;63.24;100204.55;1723587;81;21061;-63
2021/06/01 03:39:21;;;;;;;2.60;1.62;;;;;;;21.18;63.18;100205.12;1726830;81;21132;-63
2021/06/01 03:41:48;;;;;;;3.22;1.22;;;;;;;21.17;63.14;100206.86;1728638;81;21646;-64
2021/06/01 03:44:15;;;;;;;2.90;1.00;;;;;;;21.16;63.10;100205.23;1733115;81;21396;-63
2021/06/01 03:46:41;;;;;;;1.90;1.27;;;;;;;21.14;63.08;100202.80;1737751;81;21487;-64
2021/06/01 03:49:08;;;;;;;2.67;1.30;;;;;;;21.12;63.08;100197.34;1729710;81;21136;-65
2021/06/01 03:51:34;;;;;;;2.42;1.45;;;;;;;21.11;63.07;100202.63;1734328;81;21055;-63
2021/06/01 03:54:00;;;;;;;41.00;20.10;;;;;;;21.09;63.06;100208.48;1727901;81;21144;-69
2021/06/01 03:56:26;;;;;;;39.67;19.48;;;;;;;21.07;63.09;100204.44;1734360;81;21116;-68
2021/06/01 03:58:53;;;;;;;12.45;5.90;;;;;;;21.11;63.08;100199.86;1732165;81;21061;-68
2021/06/01 04:01:19;;;;;;;72.80;23.77;;;;;;;21.15;63.16;100204.99;1734337;81;21086;-67
2021/06/01 04:03:45;;;;;;;84.47;26.12;;;;;;;21.18;63.25;100204.31;1732200;81;21605;-66
2021/06/01 04:06:12;;;;;;;150.38;56.45;;;;;;;21.21;63.32;100204.48;1732259;81;21092;-69
2021/06/01 04:08:39;;;;;;;317.80;144.13;;;;;;;21.23;63.39;100202.73;1732100;81;21116;-67
2021/06/01 04:11:05;;;;;;;300.68;152.07;;;;;;;21.25;63.46;100203.23;1730801;81;21073;-65
2021/06/01 04:13:32;;;;;;;249.88;126.35;;;;;;;21.28;63.44;100201.97;1726807;81;21041;-69
2021/06/01 04:15:58;;;;;;;202.32;98.15;;;;;;;21.30;63.37;100205.80;1729144;81;21539;-69
2021/06/01 04:18:24;;;;;;;331.32;154.50;;;;;;;21.32;63.30;100209.02;1732056;81;21049;-67
2021/06/01 04:20:50;;;;;;;408.20;203.95;;;;;;;21.33;63.25;100202.34;1731227;81;21080;-63
2021/06/01 04:23:16;;;;;;;195.00;85.87;;;;;;;21.32;63.15;100198.77;1728252;81;21097;-63
2021/06/01 04:25:42;;;;;;;381.27;174.72;;;;;;;21.29;63.09;100202.78;1730736;81;21626;-66
2021/06/01 04:28:09;;;;;;;386.73;186.07;;;;;;;21.26;63.07;100197.94;1725113;81;21096;-67
2021/06/01 04:30:36;;;;;;;523.15;306.05;;;;;;;21.26;63.10;100199.32;1732539;81;21105;-68
2021/06/01 04:33:02;;;;;;;613.22;351.32;;;;;;;21.26;63.08;100202.87;1688112;83;21513;-68
2021/06/01 04:35:28;;;;;;;485.32;250.68;;;;;;;21.25;63.06;100199.08;1720121;82;21619;-66
2021/06/01 04:37:54;;;;;;;456.45;219.43;;;;;;;21.25;63.05;100196.31;1720534;82;21096;-66
2021/06/01 04:40:20;;;;;;;401.67;182.60;;;;;;;21.23;63.02;100202.16;1736800;81;21066;-65
2021/06/01 04:42:47;;;;;;;332.50;148.40;;;;;;;21.26;63.00;100200.10;1721708;82;21047;-67
2021/06/01 04:45:14;;;;;;;287.38;117.15;;;;;;;21.32;63.06;100202.11;1738528;81;21125;-64
2021/06/01 04:47:43;;;;;;;343.75;132.18;;;;;;;21.32;63.12;100202.11;1734917;81;21083;-62
2021/06/01 04:50:10;;;;;;;249.65;96.50;;;;;;;21.32;63.20;100202.92;1730298;81;21072;-64
2021/06/01 04:52:36;;;;;;;87.50;31.97;;;;;;;21.33;63.22;100205.12;1739004;81;21026;-61
2021/06/01 04:55:04;;;;;;;34.00;12.93;;;;;;;21.33;63.25;100207.88;1718572;82;21054;-60
2021/06/01 04:57:30;;;;;;;54.40;22.60;;;;;;;21.33;63.20;100207.31;1731339;82;21770;-60
2021/06/01 04:59:56;;;;;;;83.47;31.37;;;;;;;21.33;63.19;100202.34;1722428;82;21136;-59
2021/06/01 05:02:22;;;;;;;215.57;58.02;;;;;;;21.34;63.18;100207.53;1721045;82;21573;-58
2021/06/01 05:04:49;;;;;;;238.60;67.45;;;;;;;21.37;63.21;100208.26;1737811;81;21054;-57
2021/06/01 05:07:15;;;;;;;197.57;65.62;;;;;;;21.42;63.44;100203.09;1735711;81;21065;-57
2021/06/01 05:09:41;;;;;;;194.13;60.03;;;;;;;21.49;63.67;100205.31;1734544;81;21132;-58
2021/06/01 05:12:08;;;;;;;201.27;65.20;;;;;;;21.57;63.98;100201.09;1722549;82;21116;-59
2021/06/01 05:14:35;;;;;;;146.70;52.27;;;;;;;21.62;64.32;100202.27;1734722;81;21103;-61
2021/06/01 05:17:01;;;;;;;127.17;49.53;;;;;;;21.66;64.69;100196.86;1734765;81;21581;-59
2021/06/01 05:19:27;;;;;;;132.15;54.23;;;;;;;21.67;64.99;100195.72;1728206;82;21042;-57
2021/06/01 05:21:53;;;;;;;128.60;49.30;;;;;;;21.69;65.23;100201.72;1719021;82;21773;-59
2021/06/01 05:24:19;;;;;;;80.32;32.88;;;;;;;21.68;65.42;100200.12;1726393;82;21196;-58
2021/06/01 05:26:45;;;;;;;59.60;23.05;;;;;;;21.67;65.54;100202.08;1725403;81;21080;-59
2021/06/01 05:29:12;;;;;;;40.88;17.25;;;;;;;21.67;65.61;100199.30;1723631;81;21133;-58
2021/06/01 05:34:20;;;;;;;25.40;10.75;;;;;;;21.64;65.54;100204.72;1650521;84;21633;-58
2021/06/01 05:36:46;;;;;;;23.32;9.58;;;;;;;21.60;65.50;100205.16;1701491;83;21642;-58
2021/06/01 05:39:13;;;;;;;18.98;7.67;;;;;;;21.58;65.45;100207.44;1700725;83;20945;-59
2021/06/01 05:41:39;;;;;;;17.45;7.22;;;;;;;21.55;65.43;100203.41;1697674;83;21638;-59
2021/06/01 05:44:06;;;;;;;12.50;5.55;;;;;;;21.53;65.36;100207.64;1701273;83;21109;-59
2021/06/01 05:46:33;;;;;;;12.18;5.80;;;;;;;21.49;65.31;100210.28;1697205;83;21093;-61
2021/06/01 05:49:01;;;;;;;17.60;8.13;;;;;;;21.49;65.23;100212.23;1699349;83;21353;-56
2021/06/01 05:51:35;;;;;;;17.92;8.73;;;;;;;21.50;65.24;100206.37;1678511;84;21048;-58
2021/06/01 05:53:58;;;;;;;;;;;;;;;21.52;65.32;100207.39;1701790;83;21081;-58
2021/06/01 05:56:24;;;;;;;10.23;4.47;;;;;;;21.53;65.36;100209.83;1664231;85;20547;-58
2021/06/01 05:58:50;;;;;;;6.42;3.40;;;;;;;21.52;65.39;100215.12;1661818;85;22348;-58
2021/06/01 06:01:16;;;;;;;9.50;3.00;;;;;;;21.52;65.47;100215.12;1700235;83;21050;-58
2021/06/01 06:03:42;;;;;;;4.33;2.33;;;;;;;21.51;65.43;100211.33;1699803;83;21013;-57
2021/06/01 06:06:11;;;;;;;3.98;2.37;;;;;;;21.51;65.32;100215.48;1702566;83;21037;-58
2021/06/01 06:08:36;;;;;;;5.08;2.70;;;;;;;21.51;65.25;100216.30;1699205;83;21137;-58
2021/06/01 06:11:02;;;;;;;2.80;2.05;;;;;;;21.50;65.16;100217.44;1701847;83;21484;-58
2021/06/01 06:13:29;;;;;;;5.05;1.90;;;;;;;21.49;65.04;100221.91;1701042;82;21129;-58
2021/06/01 06:15:55;;;;;;;3.50;2.02;;;;;;;21.46;64.89;100219.83;1699330;82;22608;-59
2021/06/01 06:18:33;;;;;;;2.70;1.80;;;;;;;21.43;64.81;100221.30;1682689;84;21175;-59
2021/06/01 06:21:01;;;;;;;3.35;1.87;;;;;;;21.42;64.69;100229.39;1700642;83;21074;-59
2021/06/01 06:23:29;;;;;;;4.00;1.55;;;;;;;21.38;64.64;100232.59;1701377;83;21157;-58
2021/06/01 06:25:55;;;;;;;3.70;1.55;;;;;;;21.35;64.58;100227.14;1697719;83;21143;-58
2021/06/01 06:28:22;;;;;;;3.02;1.50;;;;;;;21.34;64.59;100231.65;1697832;83;21100;-58
2021/06/01 06:30:48;;;;;;;3.50;1.45;;;;;;;21.34;64.54;100231.65;1697110;81;21156;-57
2021/06/01 06:33:14;;;;;;;3.27;1.42;;;;;;;21.35;64.53;100232.67;1683365;84;21118;-58
2021/06/01 06:35:40;;;;;;;2.55;1.35;;;;;;;21.36;64.59;100236.26;1698617;82;21592;-58
2021/06/01 06:38:06;;;;;;;3.75;1.32;;;;;;;21.36;64.62;100234.30;1700281;82;21089;-58
2021/06/01 06:40:32;;;;;;;1.92;1.12;;;;;;;21.37;64.69;100235.11;1699871;82;21097;-58
2021/06/01 06:42:58;;;;;;;1.80;1.32;;;;;;;21.36;64.72;100234.30;1696575;82;21086;-58
2021/06/01 06:45:25;;;;;;;2.55;1.22;;;;;;;21.37;64.74;100240.08;1698762;82;21121;-58
2021/06/01 06:50:21;;;;;;;3.50;2.42;;;;;;;21.39;64.67;100243.87;1694730;82;21045;-59
2021/06/01 06:52:48;;;;;;;3.35;2.65;;;;;;;21.38;64.58;100242.28;1699782;82;21081;-58
2021/06/01 06:55:14;;;;;;;5.20;2.52;;;;;;;21.38;64.53;100243.66;1695541;82;21121;-58
2021/06/01 06:57:41;;;;;;;3.50;2.20;;;;;;;21.38;64.47;100246.42;1695816;82;21113;-58
2021/06/01 07:00:13;;;;;;;3.35;2.15;;;;;;;21.36;64.42;100241.79;1693260;82;21258;-58
2021/06/01 07:02:41;;;;;;;5.42;2.30;;;;;;;21.35;64.40;100245.70;1697068;83;21114;-58
2021/06/01 07:05:10;;;;;;;3.45;2.00;;;;;;;21.33;64.38;100244.67;1698221;82;21108;-57
2021/06/01 07:07:36;;;;;;;2.20;1.47;;;;;;;21.34;64.32;100248.25;1687487;83;21509;-57
2021/06/01 07:10:04;;;;;;;2.60;1.62;;;;;;;21.35;64.38;100242.93;1697251;82;21116;-57
2021/06/01 07:12:31;;;;;;;3.85;1.92;;;;;;;21.37;64.45;100246.19;1700508;82;21542;-57
2021/06/01 07:15:03;;;;;;;3.92;1.72;;;;;;;21.37;64.53;100250.34;1697143;82;21155;-57
2021/06/01 07:17:29;;;;;;;2.62;1.80;;;;;;;21.37;64.61;100248.95;1672409;83;21112;-57
2021/06/01 07:19:56;;;;;;;2.33;1.77;;;;;;;21.36;64.65;100256.44;1698415;82;21130;-57
2021/06/01 07:22:23;;;;;;;2.95;1.90;;;;;;;21.37;64.64;100255.88;1698011;82;21038;-58
2021/06/01 07:24:50;;;;;;;2.15;1.60;;;;;;;21.36;64.61;100257.82;1698532;82;21077;-58
2021/06/01 07:27:16;;;;;;;1.77;1.40;;;;;;;21.36;64.58;100251.48;1698665;82;21614;-58
2021/06/01 07:29:42;;;;;;;2.33;1.62;;;;;;;21.36;64.55;100251.48;1699541;82;21088;-58
2021/06/01 07:32:09;;;;;;;2.10;1.57;;;;;;;21.35;64.52;100259.53;1714811;82;21130;-58
2021/06/01 07:34:35;;;;;;;1.80;1.22;;;;;;;21.34;64.50;100256.55;1738963;81;21152;-58
2021/06/01 07:37:01;;;;;;;2.22;1.32;;;;;;;21.30;64.46;100259.16;1735109;81;21496;-58
2021/06/01 07:39:27;;;;;;;2.67;1.57;;;;;;;21.29;64.45;100265.05;1738007;81;21514;-60
2021/06/01 07:41:54;;;;;;;1.95;1.37;;;;;;;21.27;64.41;100265.94;1742010;81;21017;-60
2021/06/01 07:44:21;;;;;;;1.87;1.30;;;;;;;21.26;64.50;100258.20;1740145;81;21554;-60
2021/06/01 07:46:48;;;;;;;1.62;1.20;;;;;;;21.28;64.46;100260.08;1723306;82;21128;-60
2021/06/01 07:49:14;;;;;;;2.33;1.60;;;;;;;21.31;64.51;100262.73;1727376;82;21554;-59
2021/06/01 07:51:40;;;;;;;3.10;1.87;;;;;;;21.32;64.60;100258.83;1731377;81;21052;-60
2021/06/01 07:54:06;;;;;;;3.80;2.45;;;;;;;21.33;64.71;100264.04;1729666;82;20953;-60
2021/06/01 07:56:33;;;;;;;4.22;2.55;;;;;;;21.32;64.76;100256.06;1730675;82;21172;-60
2021/06/01 07:59:00;;;;;;;3.35;2.42;;;;;;;21.33;64.79;100265.42;1729746;81;21085;-60
2021/06/01 08:01:26;;;;;;;5.35;2.10;;;;;;;21.33;64.74;100262.66;1731765;81;21991;-60
2021/06/01 08:03:52;;;;;;;3.20;2.10;;;;;;;21.34;64.69;100264.85;1739919;81;21121;-60
2021/06/01 08:06:18;;;;;;;4.83;2.45;;;;;;;21.33;64.60;100270.95;1727936;82;21100;-60
2021/06/01 08:08:45;;;;;;;4.37;2.22;;;;;;;21.32;64.50;100269.89;1726192;81;21116;-60
2021/06/01 08:11:11;;;;;;;3.30;1.87;;;;;;;21.30;64.42;100267.45;1728921;82;22197;-61
2021/06/01 08:13:37;;;;;;;2.77;1.98;;;;;;;21.28;64.34;100274.48;1729359;82;23162;-60
2021/06/01 08:16:04;;;;;;;2.25;1.77;;;;;;;21.26;64.29;100278.17;1737984;81;21077;-61
2021/06/01 08:18:38;;;;;;;2.95;1.80;;;;;;;21.24;64.22;100284.03;1724132;81;21080;-60
2021/06/01 08:21:35;;;;;;;2.60;1.70;;;;;;;21.23;64.19;100285.16;1730122;81;21057;-60
2021/06/01 08:23:26;;;;;;;2.12;1.52;;;;;;;21.21;64.16;100286.66;1721027;82;21128;-60
2021/06/01 08:25:53;;;;;;;2.60;1.30;;;;;;;21.19;64.11;100288.36;1724416;82;23147;-60
2021/06/01 08:28:19;;;;;;;3.20;1.55;;;;;;;21.21;64.08;100292.19;1732358;81;21100;-60
2021/06/01 08:30:45;;;;;;;3.20;1.72;;;;;;;21.20;64.10;100296.91;1744728;81;22424;-60
2021/06/01 08:33:11;;;;;;;1.77;1.30;;;;;;;21.21;64.16;100300.48;1732957;81;21539;-60
2021/06/01 08:35:38;;;;;;;1.90;1.35;;;;;;;21.21;64.22;100298.53;1733653;81;21081;-60
2021/06/01 08:38:04;;;;;;;1.98;1.15;;;;;;;21.21;64.30;100292.19;1729730;81;21153;-60
2021/06/01 08:40:30;;;;;;;4.00;1.60;;;;;;;21.21;64.34;100307.41;1730315;81;21054;-60
2021/06/01 08:42:56;;;;;;;1.95;1.20;;;;;;;21.20;64.30;100298.86;1734757;81;21691;-60
2021/06/01 08:45:22;;;;;;;2.15;1.40;;;;;;;21.20;64.27;100301.63;1730832;81;21134;-60
2021/06/01 08:47:49;;;;;;;2.90;1.32;;;;;;;21.18;64.22;100308.05;1728499;81;21117;-61
2021/06/01 08:50:16;;;;;;;2.00;1.30;;;;;;;21.18;64.16;100308.86;1735495;81;21176;-60
2021/06/01 08:52:42;;;;;;;1.42;0.90;;;;;;;21.15;64.13;100306.77;1732538;81;21010;-60
2021/06/01 08:55:11;;;;;;;1.90;1.27;;;;;;;21.14;64.07;100315.39;1734297;81;21525;-60
2021/06/01 08:57:38;;;;;;;3.65;1.40;;;;;;;21.13;64.08;100311.81;1732097;81;21105;-60
2021/06/01 09:00:07;;;;;;;2.00;1.20;;;;;;;21.12;64.02;100312.13;1737348;81;20986;-60
2021/06/01 09:02:33;;;;;;;1.22;0.93;;;;;;;21.09;64.04;100310.83;1732290;81;21064;-60
2021/06/01 09:05:03;;;;;;;1.65;1.15;;;;;;;21.08;64.00;100312.56;1736738;81;21566;-60
2021/06/01 09:19:48;;;;;;;1.75;0.93;;;;;;;21.07;64.14;100307.59;1694326;81;21142;-59
2021/06/01 09:21:12;;;;;;;1.10;0.82;;;;;;;21.06;64.30;100312.06;1713789;82;21097;-64
2021/06/01 09:23:49;;;;;;;1.40;0.82;;;;;;;21.05;64.29;100318.16;1731779;81;21092;-59
2021/06/01 09:29:30;;;;;;;1.32;0.95;;;;;;;21.01;64.26;100315.83;1730843;81;21118;-61
2021/06/01 09:32:16;;;;;;;1.25;1.00;;;;;;;21.00;64.23;100331.39;1723788;82;21090;-60
2021/06/01 09:34:49;;;;;;;1.20;0.80;;;;;;;20.97;64.21;100330.08;1708132;82;21054;-60
2021/06/01 09:37:28;;;;;;;1.47;1.00;;;;;;;20.96;64.21;100327.88;1702943;83;21600;-60
2021/06/01 09:40:18;;;;;;;2.10;0.88;;;;;;;20.95;64.19;100331.81;1717055;82;21650;-60
2021/06/01 09:42:50;;;;;;;2.02;1.07;;;;;;;20.94;64.17;100334.33;1717205;83;21203;-60
2021/06/01 09:45:19;;;;;;;1.47;0.70;;;;;;;20.94;64.17;100339.05;1705915;83;21398;-60
2021/06/01 09:47:50;;;;;;;1.15;0.62;;;;;;;20.96;64.15;100334.80;1699505;83;21140;-60
2021/06/01 09:52:56;;;;;;;0.82;0.50;;;;;;;21.01;64.23;100334.38;1706724;82;20263;-60
2021/06/01 09:55:29;;;;;;;1.05;0.70;;;;;;;21.02;64.31;100331.28;1702359;83;21127;-61
2021/06/01 09:57:55;;;;;;;0.82;0.72;;;;;;;21.03;64.39;100321.86;1703276;83;21170;-60
2021/06/01 10:00:27;;;;;;;0.95;0.65;;;;;;;21.03;64.42;100326.00;1704780;83;21637;-59
2021/06/01 10:03:03;;;;;;;1.02;0.70;;;;;;;21.05;64.42;100321.53;1700613;83;21151;-59
2021/06/01 10:05:34;;;;;;;0.98;0.70;;;;;;;21.05;64.36;100336.14;1718951;82;21137;-59
2021/06/01 10:08:17;;;;;;;1.35;0.57;;;;;;;21.05;64.31;100336.14;1695609;83;21111;-59
2021/06/01 10:11:03;;;;;;;0.57;0.50;;;;;;;21.05;64.26;100347.20;1700487;83;21790;-59
2021/06/01 10:13:32;;;;;;;1.25;0.60;;;;;;;21.03;64.23;100352.28;1711194;82;21520;-60
2021/06/01 10:16:03;;;;;;;1.05;0.80;;;;;;;21.02;64.20;100358.13;1692079;83;21596;-60
2021/06/01 10:18:30;;;;;;;;;;;;;;;21.02;64.16;100352.03;1678661;85;21094;-60
2021/06/01 10:21:02;;;;;;;1.27;0.90;;;;;;;21.02;64.13;100358.13;1672833;85;23142;-60
2021/06/01 10:23:31;;;;;;;1.30;0.80;;;;;;;20.96;64.11;100366.60;1673342;84;21156;-59
2021/06/01 10:25:57;;;;;;;1.57;1.00;;;;;;;20.94;64.07;100362.55;1720013;82;21042;-60
2021/06/01 10:28:31;;;;;;;1.00;0.78;;;;;;;20.93;64.06;100370.03;1720297;83;21130;-64
2021/06/01 10:30:56;;;;;;;;;;;;;;;20.92;64.03;100373.12;1718148;82;21654;-61
2021/06/01 10:33:23;;;;;;;1.20;0.80;;;;;;;20.94;63.98;100377.20;1717517;82;21230;-60
2021/06/01 10:36:06;;;;;;;1.30;0.80;;;;;;;20.95;63.97;100379.39;1728090;81;21604;-61
2021/06/01 10:52:26;;;;;;;0.90;0.65;;;;;;;20.94;63.98;100374.43;1734380;81;21037;-60
2021/06/01 10:54:54;;;;;;;2.20;0.70;;;;;;;20.93;63.93;100379.71;1746831;81;21089;-60
2021/06/01 10:57:20;;;;;;;0.90;0.60;;;;;;;20.93;63.87;100371.98;1736657;81;21460;-60
2021/06/01 11:02:25;;;;;;;0.50;0.47;;;;;;;20.92;63.78;100378.65;1743608;81;20978;-64
2021/06/01 11:05:09;;;;;;;0.90;0.57;;;;;;;20.91;63.76;100375.09;1728638;81;21530;-60
2021/06/01 11:07:59;;;;;;;0.90;0.80;;;;;;;20.91;63.72;100379.25;1735977;81;21958;-60
2021/06/01 11:10:46;;;;;;;0.50;0.42;;;;;;;20.91;63.67;100383.96;1740237;81;21183;-60
2021/06/01 11:13:24;;;;;;;0.65;0.53;;;;;;;20.89;63.67;100387.05;1733636;81;21045;-60
2021/06/01 11:15:55;;;;;;;0.68;0.53;;;;;;;20.88;63.63;100385.98;1737509;81;21179;-60
2021/06/01 11:18:34;;;;;;;0.65;0.50;;;;;;;20.86;63.62;100387.72;1733524;81;21431;-60
2021/06/01 11:21:12;;;;;;;0.47;0.47;;;;;;;20.88;63.64;100392.33;1727004;81;21113;-60
2021/06/01 11:24:13;;;;;;;0.35;0.30;;;;;;;20.90;63.68;100393.39;1740986;81;21086;-59
2021/06/01 11:35:15;;;;;;;0.62;0.47;;;;;;;20.91;63.91;100399.17;1638775;85;21957;-60
2021/06/01 11:37:56;;;;;;;0.62;0.50;;;;;;;20.91;63.87;100399.98;1646343;85;21121;-60
2021/06/01 11:43:15;;;;;;;0.85;0.50;;;;;;;20.92;63.84;100404.35;1677132;84;20162;-59
2021/06/01 11:51:27;;;;;;;1.20;0.60;;;;;;;20.96;63.81;100412.83;1676236;84;21504;-58
2021/06/01 11:54:11;;;;;;;0.53;0.40;;;;;;;20.96;63.74;100412.23;1675239;84;21577;-60
2021/06/01 11:56:53;;;;;;;0.45;0.40;;;;;;;20.95;63.70;100423.64;1679896;84;21102;-59
2021/06/01 12:20:55;;;;;;;0.55;0.40;;;;;;;21.02;63.92;100435.56;1679440;84;21403;-60
2021/06/01 12:23:31;;;;;;;0.50;0.50;;;;;;;21.01;63.91;100450.53;1677413;84;21034;-60
2021/06/01 12:32:13;;;;;;;0.70;0.40;;;;;;;20.95;63.89;100453.50;1675047;84;21142;-60
2021/06/01 12:41:41;;;;;;;0.50;0.50;;;;;;;20.90;63.92;100450.89;1641342;84;21093;-60
2021/06/01 12:45:01;;;;;;;0.30;0.30;;;;;;;20.90;64.08;100455.05;1717364;82;21076;-60
2021/06/01 13:12:19;;;;;;;0.57;0.40;;;;;;;20.83;64.46;100487.92;1701145;82;21596;-60
2021/06/01 13:47:18;;;;;;;8.08;2.30;;;;;;;20.77;64.86;100525.16;1672994;84;21193;-61
2021/06/01 13:50:04;;;;;;;8.25;2.90;;;;;;;20.72;64.88;100539.13;1667493;84;21303;-61
2021/06/01 13:55:09;;;;;;;5.33;2.15;;;;;;;20.73;65.00;100531.09;1667221;84;21227;-60
2021/06/01 13:57:47;;;;;;;7.78;2.47;;;;;;;20.75;65.13;100528.02;1668786;84;21068;-62
2021/06/01 14:30:23;;;;;;;7.37;2.20;;;;;;;20.56;65.05;100548.23;1644352;85;21100;-61
2021/06/01 14:36:29;;;;;;;6.97;2.87;;;;;;;20.58;65.17;100549.52;1841495;75;20964;-60
2021/06/01 15:22:35;;;;;;;5.92;1.70;;;;;;;20.47;65.15;100555.94;1848123;76;21076;-60
2021/06/01 15:49:47;;;;;;;10.05;5.75;;;;;;;20.21;64.71;100570.78;1843664;77;21493;-64